Terminal Aerodrome Forecast
Issued by NWS Shreveport, LA

Home | Current Version | Previous Version | Text Only | Print | Product List | Glossary On
Versions: 1 2 3 4 5 6 7 8 9 10 11 12 13 14 15 16 17 18 19 20 21 22 23 24
000
FTUS44 KSHV 261742
TAFMLU
TAF
KMLU 261742Z 2618/2718 VRB05KT P6SM SKC
     FM270000 04010KT P6SM SCT150
     FM270900 04012KT P6SM OVC015
     FM271700 05012KT P6SM VCTS BKN025CB=

USA.gov is the U.S. government's official web portal to all federal, state and local government web resources and services.